createdAt,value
2019-05-26T00:00:33.380Z,8.73
2019-05-26T00:03:05.113Z,9.70
2019-05-26T00:05:36.815Z,11.43
2019-05-26T00:08:08.627Z,11.53
2019-05-26T00:10:40.341Z,8.40
2019-05-26T00:13:12.181Z,9.27
2019-05-26T00:15:43.981Z,13.90
2019-05-26T00:18:15.797Z,9.63
2019-05-26T00:20:47.498Z,12.27
2019-05-26T00:23:19.641Z,8.70
2019-05-26T00:25:51.339Z,18.23
2019-05-26T00:28:23.787Z,7.33
2019-05-26T00:30:55.485Z,14.23
2019-05-26T00:33:27.216Z,14.13
2019-05-26T00:35:58.920Z,11.97
2019-05-26T00:38:30.680Z,14.77
2019-05-26T00:41:02.402Z,12.53
2019-05-26T00:43:34.129Z,9.17
2019-05-26T00:46:05.819Z,15.63
2019-05-26T00:48:37.640Z,14.80
2019-05-26T00:51:09.456Z,13.23
2019-05-26T00:53:41.294Z,13.17
2019-05-26T00:56:13.091Z,17.80
2019-05-26T00:58:44.813Z,17.00
2019-05-26T01:01:16.520Z,13.50
2019-05-26T01:03:48.321Z,14.63
2019-05-26T01:06:20.130Z,16.20
2019-05-26T01:08:51.960Z,12.93
2019-05-26T01:11:23.657Z,14.17
2019-05-26T01:13:55.385Z,16.13
2019-05-26T01:16:27.085Z,19.93
2019-05-26T01:18:58.812Z,16.30
2019-05-26T01:21:30.628Z,19.47
2019-05-26T01:24:02.451Z,20.60
2019-05-26T01:26:34.160Z,16.00
2019-05-26T01:29:05.899Z,23.20
2019-05-26T01:31:37.696Z,17.37
2019-05-26T01:34:09.519Z,16.43
2019-05-26T01:36:41.568Z,16.43
2019-05-26T01:39:13.300Z,17.17
2019-05-26T01:41:45.037Z,17.87
2019-05-26T01:44:16.865Z,16.97
2019-05-26T01:46:48.575Z,18.00
2019-05-26T01:49:20.382Z,16.63
2019-05-26T01:51:52.085Z,19.23
2019-05-26T01:54:23.817Z,16.73
2019-05-26T01:56:55.525Z,19.87
2019-05-26T01:59:27.252Z,19.83
2019-05-26T02:01:59.045Z,24.83
2019-05-26T02:04:31.024Z,14.27
2019-05-26T02:07:02.944Z,20.40
2019-05-26T02:09:34.689Z,24.10
2019-05-26T02:12:06.494Z,15.73
2019-05-26T02:14:38.241Z,16.77
2019-05-26T02:17:10.148Z,18.77
2019-05-26T02:19:41.873Z,14.87
2019-05-26T02:22:13.577Z,17.97
2019-05-26T02:24:45.286Z,18.73
2019-05-26T02:27:16.988Z,11.50
2019-05-26T02:29:48.700Z,16.83
2019-05-26T02:32:20.400Z,15.63
2019-05-26T02:34:52.128Z,26.83
2019-05-26T02:37:23.841Z,22.63
2019-05-26T02:39:55.568Z,37.97
2019-05-26T02:42:27.343Z,23.60
2019-05-26T02:44:59.643Z,16.10
2019-05-26T02:47:31.588Z,21.47
2019-05-26T02:50:04.528Z,19.33
2019-05-26T02:52:36.306Z,22.67
2019-05-26T02:55:08.736Z,19.83
2019-05-26T02:57:40.439Z,22.93
2019-05-26T03:00:16.199Z,24.20
2019-05-26T03:02:47.997Z,14.60
2019-05-26T03:05:19.995Z,18.07
2019-05-26T03:07:52.489Z,17.13
2019-05-26T03:10:24.309Z,14.67
2019-05-26T03:12:58.315Z,22.50
2019-05-26T03:15:33.036Z,17.00
2019-05-26T03:18:05.164Z,17.43
2019-05-26T03:20:38.881Z,19.43
2019-05-26T03:23:10.788Z,20.63
2019-05-26T03:25:42.823Z,17.90
2019-05-26T03:28:14.641Z,15.13
2019-05-26T03:30:46.695Z,19.43
2019-05-26T03:33:18.473Z,22.17
2019-05-26T03:35:50.393Z,21.70
2019-05-26T03:38:22.198Z,28.87
2019-05-26T03:40:54.018Z,19.80
2019-05-26T03:43:25.827Z,23.67
2019-05-26T03:46:18.231Z,23.03
2019-05-26T03:48:50.253Z,35.47
2019-05-26T03:51:22.131Z,18.97
2019-05-26T03:53:53.971Z,24.60
2019-05-26T03:56:25.780Z,21.53
2019-05-26T03:58:57.580Z,20.47
2019-05-26T04:01:29.415Z,18.60
2019-05-26T04:04:01.196Z,17.67
2019-05-26T04:06:32.924Z,20.97
2019-05-26T04:09:06.257Z,17.60
2019-05-26T04:11:37.982Z,16.13
2019-05-26T04:14:09.774Z,19.63
2019-05-26T04:16:41.485Z,15.10
2019-05-26T04:19:13.278Z,19.27
2019-05-26T04:21:44.991Z,18.33
2019-05-26T04:24:16.692Z,16.60
2019-05-26T04:26:48.408Z,18.63
2019-05-26T04:29:20.225Z,18.10
2019-05-26T04:31:51.963Z,18.23
2019-05-26T04:34:23.834Z,15.80
2019-05-26T04:36:55.569Z,16.83
2019-05-26T04:39:27.313Z,17.13
2019-05-26T04:41:59.053Z,15.73
2019-05-26T04:44:30.748Z,15.83
2019-05-26T04:47:02.574Z,19.23
2019-05-26T04:49:37.186Z,17.17
2019-05-26T04:52:07.991Z,21.30
2019-05-26T04:54:39.697Z,20.50
2019-05-26T04:57:11.410Z,18.50
2019-05-26T04:59:43.129Z,12.43
2019-05-26T05:02:14.961Z,13.60
2019-05-26T05:04:46.763Z,15.30
2019-05-26T05:07:18.512Z,14.77
2019-05-26T05:09:50.307Z,16.53
2019-05-26T05:12:22.037Z,11.93
2019-05-26T05:14:53.741Z,11.43
2019-05-26T05:17:25.452Z,16.23
2019-05-26T05:19:57.172Z,12.97
2019-05-26T05:22:28.885Z,15.53
2019-05-26T05:25:00.840Z,18.57
2019-05-26T05:27:32.560Z,15.30
2019-05-26T05:30:05.327Z,17.03
2019-05-26T05:32:37.163Z,15.90
2019-05-26T05:35:09.670Z,16.70
2019-05-26T05:37:41.400Z,14.13
2019-05-26T05:40:13.610Z,12.60
2019-05-26T05:42:45.325Z,13.23
2019-05-26T05:45:17.431Z,11.43
2019-05-26T05:47:49.290Z,11.03
2019-05-26T05:50:21.155Z,13.67
2019-05-26T05:52:53.057Z,11.27
2019-05-26T05:55:25.577Z,8.37
2019-05-26T05:57:57.293Z,12.30
2019-05-26T06:00:29.106Z,12.07
2019-05-26T06:03:00.945Z,7.93
2019-05-26T06:05:32.649Z,11.27
2019-05-26T06:08:04.374Z,11.73
2019-05-26T06:10:36.135Z,9.90
2019-05-26T06:13:07.944Z,8.43
2019-05-26T06:15:39.644Z,10.97
2019-05-26T06:18:11.563Z,9.23
2019-05-26T06:20:43.304Z,8.87
2019-05-26T06:23:15.032Z,6.90
2019-05-26T06:25:46.764Z,7.43
2019-05-26T06:28:18.495Z,6.13
2019-05-26T06:30:50.205Z,7.20
2019-05-26T06:33:22.095Z,5.33
2019-05-26T06:35:53.793Z,7.30
2019-05-26T06:38:25.512Z,4.23
2019-05-26T06:40:57.329Z,9.13
2019-05-26T06:43:29.061Z,6.60
2019-05-26T06:46:00.778Z,6.50
2019-05-26T06:48:32.543Z,7.40
2019-05-26T06:51:04.312Z,9.00
2019-05-26T06:53:37.505Z,6.03
2019-05-26T06:56:09.550Z,9.70
2019-05-26T06:58:41.371Z,7.07
2019-05-26T07:01:13.102Z,5.43
2019-05-26T07:03:44.941Z,5.50
2019-05-26T07:06:16.640Z,10.90
2019-05-26T07:08:48.375Z,6.73
2019-05-26T07:11:20.100Z,11.50
2019-05-26T07:13:51.826Z,6.93
2019-05-26T07:16:36.780Z,4.67
2019-05-26T07:18:57.164Z,5.78
2019-05-26T07:21:29.042Z,3.62
2019-05-26T07:24:00.755Z,3.70
2019-05-26T07:26:32.673Z,4.85
2019-05-26T07:29:04.668Z,5.33
2019-05-26T07:31:36.381Z,5.55
2019-05-26T07:34:08.117Z,8.53
2019-05-26T07:36:39.941Z,4.62
2019-05-26T07:39:11.649Z,7.72
2019-05-26T07:41:43.366Z,6.40
2019-05-26T07:44:15.133Z,5.33
2019-05-26T07:46:46.853Z,5.90
2019-05-26T07:49:18.576Z,8.50
2019-05-26T07:51:50.285Z,6.53
2019-05-26T07:54:25.527Z,5.33
2019-05-26T07:56:55.624Z,6.47
2019-05-26T07:59:27.488Z,6.97
2019-05-26T08:01:59.427Z,4.37
2019-05-26T08:04:31.236Z,8.48
2019-05-26T08:07:03.180Z,9.80
2019-05-26T08:09:34.896Z,8.50
2019-05-26T08:12:06.705Z,6.58
2019-05-26T08:14:38.428Z,7.53
2019-05-26T08:17:10.224Z,11.10
2019-05-26T08:19:42.048Z,5.58
2019-05-26T08:22:13.893Z,4.15
2019-05-26T08:24:45.613Z,7.72
2019-05-26T08:27:17.317Z,13.43
2019-05-26T08:29:49.066Z,4.78
2019-05-26T08:32:20.979Z,3.95
2019-05-26T08:34:52.765Z,3.98
2019-05-26T08:37:24.564Z,4.85
2019-05-26T08:39:58.445Z,4.10
2019-05-26T08:42:43.900Z,6.65
2019-05-26T08:45:04.573Z,4.30
2019-05-26T08:47:36.289Z,12.13
2019-05-26T08:50:08.247Z,10.70
2019-05-26T08:52:40.067Z,10.85
2019-05-26T08:55:12.068Z,6.25
2019-05-26T08:57:43.835Z,5.72
2019-05-26T09:00:16.677Z,5.87
2019-05-26T09:02:48.584Z,3.90
2019-05-26T09:05:20.720Z,4.10
2019-05-26T09:07:52.594Z,7.20
2019-05-26T09:10:24.399Z,8.93
2019-05-26T09:13:01.205Z,6.87
2019-05-26T09:15:29.749Z,6.05
2019-05-26T09:18:01.478Z,7.40
2019-05-26T09:20:33.329Z,5.05
2019-05-26T09:23:05.293Z,6.35
2019-05-26T09:25:37.188Z,5.97
2019-05-26T09:28:08.986Z,11.22
2019-05-26T09:30:40.882Z,6.62
2019-05-26T09:33:12.667Z,8.05
2019-05-26T09:35:44.500Z,8.88
2019-05-26T09:38:16.338Z,8.45
2019-05-26T09:40:48.085Z,7.58
2019-05-26T09:43:19.814Z,7.12
2019-05-26T09:45:51.569Z,6.97
2019-05-26T09:48:23.410Z,6.83
2019-05-26T09:50:55.248Z,7.62
2019-05-26T09:53:26.994Z,7.58
2019-05-26T09:55:58.800Z,10.78
2019-05-26T09:58:30.669Z,7.30
2019-05-26T10:01:02.512Z,32.30
2019-05-26T10:03:34.447Z,11.15
2019-05-26T10:06:06.177Z,8.45
2019-05-26T10:08:37.881Z,8.43
2019-05-26T10:11:09.654Z,9.00
2019-05-26T10:13:41.444Z,9.38
2019-05-26T10:16:13.203Z,6.17
2019-05-26T10:18:44.922Z,7.35
2019-05-26T10:21:16.649Z,8.45
2019-05-26T10:23:48.439Z,7.80
2019-05-26T10:26:20.163Z,7.70
2019-05-26T10:28:52.093Z,5.95
2019-05-26T10:31:23.849Z,6.12
2019-05-26T10:33:55.684Z,8.18
2019-05-26T10:36:27.515Z,10.30
2019-05-26T10:38:59.304Z,5.15
2019-05-26T10:41:31.177Z,8.73
2019-05-26T10:44:03.308Z,7.62
2019-05-26T10:46:35.044Z,10.48
2019-05-26T10:49:06.752Z,7.37
2019-05-26T10:51:38.579Z,8.60
2019-05-26T10:54:10.297Z,7.72
2019-05-26T10:56:42.024Z,6.85
2019-05-26T10:59:13.850Z,8.03
2019-05-26T11:01:45.649Z,10.48
2019-05-26T11:04:17.504Z,9.13
2019-05-26T11:06:49.244Z,7.12
2019-05-26T11:09:21.216Z,7.15
2019-05-26T11:11:53.185Z,9.28
2019-05-26T11:14:24.988Z,6.25
2019-05-26T11:16:56.709Z,5.22
2019-05-26T11:19:28.513Z,5.70
2019-05-26T11:22:00.450Z,4.90
2019-05-26T11:24:32.316Z,5.87
2019-05-26T11:27:09.865Z,6.33
2019-05-26T11:29:37.911Z,6.08
2019-05-26T11:32:09.621Z,6.25
2019-05-26T11:34:41.329Z,10.25
2019-05-26T11:37:13.282Z,6.78
2019-05-26T11:39:44.988Z,8.98
2019-05-26T11:42:16.722Z,7.15
2019-05-26T11:44:48.433Z,10.35
2019-05-26T11:47:20.189Z,12.73
2019-05-26T11:49:51.907Z,9.95
2019-05-26T11:52:23.717Z,8.93
2019-05-26T11:54:55.444Z,8.48
2019-05-26T11:57:27.196Z,4.35
2019-05-26T11:59:59.053Z,12.18
2019-05-26T12:02:30.852Z,7.20
2019-05-26T12:05:03.137Z,4.78
2019-05-26T12:07:35.053Z,11.28
2019-05-26T12:10:07.372Z,8.15
2019-05-26T12:12:39.184Z,7.00
2019-05-26T12:15:12.010Z,8.95
2019-05-26T12:17:43.749Z,6.35
2019-05-26T12:20:19.380Z,5.95
2019-05-26T12:22:51.193Z,6.17
2019-05-26T12:25:23.079Z,3.87
2019-05-26T12:27:54.838Z,6.05
2019-05-26T12:30:26.689Z,5.80
2019-05-26T12:32:58.443Z,8.48
2019-05-26T12:35:45.590Z,7.87
2019-05-26T12:38:17.396Z,6.70
2019-05-26T12:40:49.225Z,6.95
2019-05-26T12:43:20.984Z,7.95
2019-05-26T12:45:52.800Z,4.60
2019-05-26T12:48:24.665Z,6.87
2019-05-26T12:50:56.488Z,5.92
2019-05-26T12:53:28.233Z,5.05
2019-05-26T12:55:59.941Z,7.08
2019-05-26T12:58:31.850Z,7.45
2019-05-26T13:01:03.775Z,7.78
2019-05-26T13:03:35.629Z,6.55
2019-05-26T13:06:07.389Z,5.58
2019-05-26T13:08:39.131Z,8.53
2019-05-26T13:11:10.874Z,8.88
2019-05-26T13:13:42.601Z,7.33
2019-05-26T13:16:14.304Z,7.08
2019-05-26T13:18:46.035Z,5.42
2019-05-26T13:21:17.881Z,4.67
2019-05-26T13:23:49.699Z,10.72
2019-05-26T13:26:21.512Z,5.95
2019-05-26T13:28:53.283Z,5.92
2019-05-26T13:31:25.072Z,9.35
2019-05-26T13:33:56.838Z,5.00
2019-05-26T13:36:28.561Z,2.65
2019-05-26T13:39:00.399Z,4.78
2019-05-26T13:41:32.217Z,6.03
2019-05-26T13:44:04.146Z,13.45
2019-05-26T13:46:35.961Z,3.33
2019-05-26T13:49:08.022Z,1.70
2019-05-26T13:51:39.820Z,1.95
2019-05-26T13:54:11.674Z,3.17
2019-05-26T13:56:43.592Z,5.20
2019-05-26T13:59:15.317Z,6.20
2019-05-26T14:01:47.022Z,4.42
2019-05-26T14:04:18.769Z,2.50
2019-05-26T14:06:50.497Z,3.65
2019-05-26T14:09:22.330Z,7.15
2019-05-26T14:11:54.186Z,6.97
2019-05-26T14:14:26.466Z,5.75
2019-05-26T14:16:59.783Z,5.83
2019-05-26T14:19:33.784Z,3.62
2019-05-26T14:22:05.628Z,6.70
2019-05-26T14:24:50.939Z,8.48
2019-05-26T14:27:11.181Z,6.30
2019-05-26T14:29:42.906Z,7.12
2019-05-26T14:32:14.680Z,20.88
2019-05-26T14:34:46.501Z,4.33
2019-05-26T14:37:18.204Z,5.33
2019-05-26T14:39:50.203Z,3.60
2019-05-26T14:42:22.069Z,3.45
2019-05-26T14:44:53.824Z,3.62
2019-05-26T14:47:25.648Z,2.92
2019-05-26T14:49:57.541Z,4.42
2019-05-26T14:52:29.262Z,12.28
2019-05-26T14:55:01.154Z,4.12
2019-05-26T14:57:32.984Z,5.90
2019-05-26T15:00:04.983Z,9.80
2019-05-26T15:02:36.812Z,8.08
2019-05-26T15:05:09.156Z,3.90
2019-05-26T15:07:41.055Z,4.17
2019-05-26T15:10:13.526Z,3.42
2019-05-26T15:12:47.611Z,3.15
2019-05-26T15:15:22.435Z,5.10
2019-05-26T15:17:54.264Z,5.33
2019-05-26T15:20:26.050Z,7.15
2019-05-26T15:22:57.934Z,10.82
2019-05-26T15:25:29.648Z,2.35
2019-05-26T15:28:01.370Z,6.10
2019-05-26T15:30:33.324Z,2.40
2019-05-26T15:33:05.039Z,5.80
2019-05-26T15:35:36.784Z,4.40
2019-05-26T15:38:08.680Z,5.60
2019-05-26T15:40:40.437Z,4.58
2019-05-26T15:43:12.162Z,6.37
2019-05-26T15:45:45.122Z,6.92
2019-05-26T15:48:18.277Z,11.43
2019-05-26T15:50:50.186Z,8.10
2019-05-26T15:53:21.917Z,4.83
2019-05-26T15:55:53.737Z,6.05
2019-05-26T15:58:25.483Z,6.45
2019-05-26T16:00:57.214Z,9.13
2019-05-26T16:03:29.077Z,5.78
2019-05-26T16:06:00.894Z,6.72
2019-05-26T16:08:32.765Z,3.70
2019-05-26T16:11:04.588Z,4.60
2019-05-26T16:13:36.437Z,3.98
2019-05-26T16:16:08.169Z,2.80
2019-05-26T16:18:40.101Z,1.70
2019-05-26T16:21:26.923Z,6.78
2019-05-26T16:23:45.462Z,4.42
2019-05-26T16:26:17.209Z,4.28
2019-05-26T16:28:48.939Z,8.75
2019-05-26T16:31:20.688Z,4.35
2019-05-26T16:33:52.512Z,3.80
2019-05-26T16:36:24.284Z,3.37
2019-05-26T16:38:56.117Z,3.45
2019-05-26T16:41:27.868Z,8.17
2019-05-26T16:43:59.692Z,5.37
2019-05-26T16:46:31.547Z,7.27
2019-05-26T16:49:05.722Z,9.85
2019-05-26T16:51:37.517Z,5.30
2019-05-26T16:54:09.216Z,4.50
2019-05-26T16:56:41.193Z,4.40
2019-05-26T16:59:12.933Z,4.60
2019-05-26T17:01:44.681Z,7.73
2019-05-26T17:04:16.417Z,4.07
2019-05-26T17:06:48.340Z,3.40
2019-05-26T17:09:20.070Z,3.30
2019-05-26T17:11:52.118Z,4.30
2019-05-26T17:14:24.241Z,4.17
2019-05-26T17:17:11.608Z,3.47
2019-05-26T17:19:29.584Z,2.93
2019-05-26T17:22:01.324Z,4.50
2019-05-26T17:24:33.195Z,3.67
2019-05-26T17:27:05.045Z,6.33
2019-05-26T17:29:36.760Z,3.70
2019-05-26T17:32:08.596Z,7.60
2019-05-26T17:34:40.336Z,6.27
2019-05-26T17:37:12.087Z,8.93
2019-05-26T17:39:44.699Z,10.53
2019-05-26T17:42:16.467Z,2.20
2019-05-26T17:44:48.293Z,3.23
2019-05-26T17:47:29.874Z,3.40
2019-05-26T17:49:53.669Z,14.23
2019-05-26T17:52:25.533Z,2.40
2019-05-26T17:54:57.365Z,6.43
2019-05-26T17:57:29.251Z,4.13
2019-05-26T18:00:00.975Z,3.87
2019-05-26T18:02:32.821Z,6.27
2019-05-26T18:05:04.850Z,4.23
2019-05-26T18:07:36.609Z,2.00
2019-05-26T18:10:08.812Z,2.53
2019-05-26T18:12:40.564Z,2.03
2019-05-26T18:15:12.873Z,2.07
2019-05-26T18:17:47.388Z,3.40
2019-05-26T18:20:18.958Z,4.70
2019-05-26T18:22:50.841Z,2.03
2019-05-26T18:25:22.737Z,3.33
2019-05-26T18:27:54.479Z,2.53
2019-05-26T18:30:26.441Z,2.80
2019-05-26T18:32:58.220Z,2.37
2019-05-26T18:35:30.168Z,2.50
2019-05-26T18:38:02.146Z,4.57
2019-05-26T18:40:34.039Z,3.20
2019-05-26T18:43:05.833Z,3.73
2019-05-26T18:45:37.733Z,3.63
2019-05-26T18:48:09.841Z,16.50
2019-05-26T18:50:41.665Z,3.87
2019-05-26T18:53:13.675Z,5.63
2019-05-26T18:55:45.786Z,3.93
2019-05-26T18:58:17.563Z,5.97
2019-05-26T19:00:49.352Z,7.67
2019-05-26T19:03:21.308Z,5.20
2019-05-26T19:05:53.172Z,3.67
2019-05-26T19:08:25.024Z,4.97
2019-05-26T19:10:56.904Z,5.07
2019-05-26T19:13:29.029Z,3.53
2019-05-26T19:16:00.853Z,6.57
2019-05-26T19:18:32.844Z,3.03
2019-05-26T19:21:05.009Z,2.87
2019-05-26T19:23:37.002Z,4.60
2019-05-26T19:26:09.073Z,2.63
2019-05-26T19:28:40.844Z,3.30
2019-05-26T19:31:12.886Z,3.13
2019-05-26T19:33:44.855Z,5.43
2019-05-26T19:36:16.629Z,6.40
2019-05-26T19:38:48.501Z,3.00
2019-05-26T19:41:20.347Z,2.53
2019-05-26T19:43:52.268Z,3.17
2019-05-26T19:46:24.071Z,2.80
2019-05-26T19:48:55.898Z,4.23
2019-05-26T19:51:27.760Z,4.40
2019-05-26T19:53:59.523Z,5.07
2019-05-26T19:56:31.255Z,3.10
2019-05-26T19:59:05.004Z,11.20
2019-05-26T20:01:36.879Z,3.40
2019-05-26T20:04:08.709Z,6.03
2019-05-26T20:06:43.717Z,3.20
2019-05-26T20:09:14.329Z,4.90
2019-05-26T20:11:46.153Z,3.73
2019-05-26T20:14:17.893Z,4.80
2019-05-26T20:16:49.701Z,9.33
2019-05-26T20:19:21.429Z,2.83
2019-05-26T20:21:53.131Z,2.87
2019-05-26T20:24:24.873Z,2.53
2019-05-26T20:26:56.586Z,2.43
2019-05-26T20:29:28.411Z,2.73
2019-05-26T20:32:00.214Z,3.17
2019-05-26T20:34:31.939Z,2.47
2019-05-26T20:37:03.753Z,3.40
2019-05-26T20:39:35.594Z,3.37
2019-05-26T20:42:07.401Z,4.30
2019-05-26T20:44:39.136Z,5.20
2019-05-26T20:47:10.917Z,4.90
2019-05-26T20:49:45.693Z,4.13
2019-05-26T20:52:16.390Z,5.43
2019-05-26T20:54:48.169Z,3.30
2019-05-26T20:57:19.900Z,3.93
2019-05-26T20:59:51.616Z,4.57
2019-05-26T21:02:23.330Z,5.03
2019-05-26T21:04:55.050Z,3.60
2019-05-26T21:07:27.608Z,4.90
2019-05-26T21:09:59.317Z,2.90
2019-05-26T21:12:31.033Z,4.50
2019-05-26T21:15:04.620Z,3.47
2019-05-26T21:17:36.322Z,7.60
2019-05-26T21:20:09.254Z,3.30
2019-05-26T21:22:40.977Z,2.90
2019-05-26T21:25:12.899Z,3.23
2019-05-26T21:27:44.596Z,3.33
2019-05-26T21:30:16.439Z,4.60
2019-05-26T21:32:48.138Z,4.30
2019-05-26T21:35:19.932Z,2.87
2019-05-26T21:37:51.632Z,3.83
2019-05-26T21:40:23.350Z,3.63
2019-05-26T21:42:55.151Z,4.93
2019-05-26T21:45:26.888Z,5.73
2019-05-26T21:47:58.597Z,4.37
2019-05-26T21:50:30.305Z,4.40
2019-05-26T21:53:02.117Z,5.60
2019-05-26T21:55:33.866Z,8.17
2019-05-26T21:58:05.559Z,5.47
2019-05-26T22:00:44.845Z,4.27
2019-05-26T22:03:16.782Z,9.37
2019-05-26T22:05:48.505Z,3.90
2019-05-26T22:08:20.315Z,4.77
2019-05-26T22:10:52.116Z,4.37
2019-05-26T22:13:23.802Z,3.97
2019-05-26T22:15:55.520Z,3.97
2019-05-26T22:18:27.234Z,4.33
2019-05-26T22:20:58.961Z,8.27
2019-05-26T22:23:30.862Z,3.47
2019-05-26T22:26:02.577Z,6.07
2019-05-26T22:28:34.300Z,5.43
2019-05-26T22:31:06.277Z,3.80
2019-05-26T22:33:37.980Z,4.67
2019-05-26T22:36:09.914Z,4.17
2019-05-26T22:38:41.616Z,5.20
2019-05-26T22:41:13.428Z,4.83
2019-05-26T22:43:45.136Z,3.93
2019-05-26T22:46:16.870Z,3.77
2019-05-26T22:48:48.584Z,5.67
2019-05-26T22:51:20.328Z,6.13
2019-05-26T22:53:52.129Z,4.40
2019-05-26T22:56:23.956Z,5.57
2019-05-26T22:58:55.752Z,7.13
2019-05-26T23:01:27.477Z,6.23
2019-05-26T23:03:59.297Z,4.47
2019-05-26T23:06:31.013Z,5.20
2019-05-26T23:09:04.501Z,3.60
2019-05-26T23:11:36.234Z,4.77
2019-05-26T23:14:08.042Z,5.23
2019-05-26T23:16:39.740Z,4.53
2019-05-26T23:19:19.292Z,5.17
2019-05-26T23:21:45.040Z,4.13
2019-05-26T23:24:16.748Z,7.07
2019-05-26T23:26:48.588Z,6.47
2019-05-26T23:29:20.365Z,5.10
2019-05-26T23:31:52.086Z,4.70
2019-05-26T23:34:23.804Z,5.27
2019-05-26T23:36:55.605Z,3.73
2019-05-26T23:39:27.308Z,3.47
2019-05-26T23:41:59.045Z,5.30
2019-05-26T23:44:30.759Z,4.07
2019-05-26T23:47:02.496Z,5.10
2019-05-26T23:49:34.304Z,4.03
2019-05-26T23:52:06.332Z,4.70
2019-05-26T23:54:38.033Z,4.17
2019-05-26T23:57:09.756Z,4.67
2019-05-26T23:59:41.459Z,3.10
